Griffin, Indiana
Current Conditions -  °F | °C
As of 7:35 PM on Monday 24 Nov 2014 (Local Time) from KCUL Reporting Station
Overcast Overcast  
Wind Chill: 42°   Ceiling: 7000
Heat Index: 42°   Visibility: 10mi
Dew Point: 35°   Wind: 0mph
Humidity: 75%   Direction: NA
Pressure: 29.94"   Gusts: NA
Location:  38.2°N, 87.91°W
Report Text: KCUL 250135Z AUTO 00000KT 10SM OVC070 06/02 A2994 RMK AO2 T00560015
Loading
Personal Weather Stations






























Interactive Weather Map New forecast layout! Learn more

10-Day Weather Forecast

Advertisements
Track Severe Weather on mobile